createdAt,value
2023-03-29T00:01:35.349Z,98998.22
2023-03-29T00:04:04.969Z,98999.76
2023-03-29T00:06:33.618Z,98995.67
2023-03-29T00:09:07.094Z,98996.56
2023-03-29T00:11:35.700Z,99000.15
2023-03-29T00:14:03.871Z,99002.73
2023-03-29T00:16:36.448Z,99005.27
2023-03-29T00:19:05.182Z,99018.27
2023-03-29T00:21:33.347Z,99022.69
2023-03-29T00:24:01.685Z,99019.46
2023-03-29T00:26:30.135Z,99021.67
2023-03-29T00:28:58.491Z,99021.49
2023-03-29T00:31:27.627Z,99021.85
2023-03-29T00:33:56.102Z,99028.00
2023-03-29T00:36:24.316Z,99030.73
2023-03-29T00:38:53.401Z,99031.39
2023-03-29T00:41:21.845Z,99037.38
2023-03-29T00:43:53.855Z,99049.34
2023-03-29T00:46:22.630Z,99054.96
2023-03-29T00:48:52.036Z,99061.45
2023-03-29T00:51:20.582Z,99059.23
2023-03-29T00:53:51.154Z,99061.12
2023-03-29T00:56:24.481Z,99061.80
2023-03-29T00:59:05.043Z,99067.09
2023-03-29T01:01:39.107Z,99074.95
2023-03-29T01:04:10.096Z,99068.13
2023-03-29T01:06:39.505Z,99071.71
2023-03-29T01:09:08.972Z,99071.21
2023-03-29T01:11:38.913Z,99073.06
2023-03-29T01:14:21.500Z,99073.57
2023-03-29T01:16:49.869Z,99079.54
2023-03-29T01:19:19.314Z,99087.04
2023-03-29T01:21:51.641Z,99090.30
2023-03-29T01:24:29.411Z,99085.00
2023-03-29T01:27:03.753Z,99089.77
2023-03-29T01:29:33.669Z,99091.62
2023-03-29T01:32:09.182Z,99096.91
2023-03-29T01:34:37.706Z,99100.98
2023-03-29T01:37:08.616Z,99099.25
2023-03-29T01:39:36.926Z,99100.09
2023-03-29T01:42:11.248Z,99102.27
2023-03-29T01:44:59.278Z,99105.83
2023-03-29T01:47:30.439Z,99106.35
2023-03-29T01:50:12.477Z,99112.33
2023-03-29T01:52:54.961Z,99113.69
2023-03-29T01:55:24.221Z,99105.51
2023-03-29T01:57:52.822Z,99103.95
2023-03-29T02:00:25.029Z,99102.42
2023-03-29T02:02:54.368Z,99093.04
2023-03-29T02:05:22.652Z,99093.20
2023-03-29T02:07:53.035Z,99095.06
2023-03-29T02:10:22.041Z,99093.49
2023-03-29T02:12:50.906Z,99094.50
2023-03-29T02:15:19.995Z,99088.02
2023-03-29T02:17:49.687Z,99085.96
2023-03-29T02:20:19.256Z,99087.84
2023-03-29T02:22:59.247Z,99088.17
2023-03-29T02:25:27.866Z,99088.18
2023-03-29T02:27:57.428Z,99098.91
2023-03-29T02:30:27.528Z,99102.98
2023-03-29T02:33:25.916Z,99109.62
2023-03-29T02:35:57.041Z,99121.39
2023-03-29T02:38:25.828Z,99124.46
2023-03-29T02:40:55.467Z,99130.09
2023-03-29T02:43:25.795Z,99135.20
2023-03-29T02:45:54.383Z,99132.47
2023-03-29T02:48:23.836Z,99135.20
2023-03-29T02:50:58.627Z,99138.10
2023-03-29T02:53:30.881Z,99140.33
2023-03-29T02:56:02.460Z,99142.72
2023-03-29T02:58:32.017Z,99133.17
2023-03-29T03:01:00.774Z,99134.00
2023-03-29T03:03:29.994Z,99133.98
2023-03-29T03:06:02.071Z,99133.80
2023-03-29T03:08:32.408Z,99133.80
2023-03-29T03:11:00.918Z,99136.37
2023-03-29T03:13:31.105Z,99139.79
2023-03-29T03:16:01.302Z,99146.28
2023-03-29T03:18:32.792Z,99144.42
2023-03-29T03:21:02.786Z,99151.27
2023-03-29T03:23:32.276Z,99152.14
2023-03-29T03:26:00.618Z,99147.05
2023-03-29T03:28:29.928Z,99151.47
2023-03-29T03:30:59.201Z,99151.81
2023-03-29T03:33:54.648Z,99153.03
2023-03-29T03:36:37.804Z,99160.20
2023-03-29T03:39:07.419Z,99160.20
2023-03-29T03:41:36.232Z,99158.67
2023-03-29T03:44:05.017Z,99161.75
2023-03-29T03:46:33.524Z,99159.17
2023-03-29T03:49:02.572Z,99168.89
2023-03-29T03:51:34.924Z,99170.77
2023-03-29T03:54:03.645Z,99173.51
2023-03-29T03:56:34.753Z,99176.92
2023-03-29T03:59:07.362Z,99180.02
2023-03-29T04:02:16.671Z,99185.33
2023-03-29T04:04:45.555Z,99185.86
2023-03-29T04:07:18.135Z,99199.52
2023-03-29T04:10:04.849Z,99205.69
2023-03-29T04:12:42.715Z,99206.05
2023-03-29T04:15:18.088Z,99212.02
2023-03-29T04:17:54.931Z,99213.73
2023-03-29T04:20:34.398Z,99210.34
2023-03-29T04:23:04.124Z,99209.16
2023-03-29T04:25:33.520Z,99210.88
2023-03-29T04:28:20.571Z,99212.23
2023-03-29T04:30:55.002Z,99213.44
2023-03-29T04:33:47.761Z,99219.59
2023-03-29T04:36:18.018Z,99230.84
2023-03-29T04:38:48.099Z,99237.84
2023-03-29T04:41:16.825Z,99235.11
2023-03-29T04:43:46.861Z,99239.72
2023-03-29T04:46:28.958Z,99239.52
2023-03-29T04:49:16.822Z,99241.39
2023-03-29T04:51:49.113Z,99248.02
2023-03-29T04:54:22.800Z,99242.36
2023-03-29T04:57:04.102Z,99246.79
2023-03-29T04:59:55.629Z,99257.70
2023-03-29T05:02:44.684Z,99273.58
2023-03-29T05:05:13.431Z,99282.11
2023-03-29T05:07:46.273Z,99292.88
2023-03-29T05:10:15.502Z,99309.62
2023-03-29T05:12:44.622Z,99324.31
2023-03-29T05:15:15.178Z,99318.18
2023-03-29T05:17:45.329Z,99312.21
2023-03-29T05:20:14.044Z,99312.05
2023-03-29T05:22:44.173Z,99319.23
2023-03-29T05:25:17.766Z,99319.75
2023-03-29T05:27:46.264Z,99313.61
2023-03-29T05:30:15.578Z,99306.11
2023-03-29T05:33:06.559Z,99310.23
2023-03-29T05:35:37.421Z,99318.26
2023-03-29T05:38:08.130Z,99322.04
2023-03-29T05:40:37.334Z,99315.06
2023-03-29T05:43:14.544Z,99309.79
2023-03-29T05:45:43.050Z,99310.98
2023-03-29T05:48:11.852Z,99311.16
2023-03-29T05:50:43.318Z,99315.06
2023-03-29T05:53:13.759Z,99314.18
2023-03-29T05:55:42.696Z,99324.59
2023-03-29T05:58:14.694Z,99329.17
2023-03-29T06:00:44.013Z,99326.11
2023-03-29T06:03:27.797Z,99332.10
2023-03-29T06:06:05.031Z,99336.91
2023-03-29T06:08:34.083Z,99349.37
2023-03-29T06:11:11.063Z,99357.73
2023-03-29T06:14:10.877Z,99360.52
2023-03-29T06:16:46.742Z,99358.16
2023-03-29T06:19:16.163Z,99355.10
2023-03-29T06:21:44.633Z,99357.19
2023-03-29T06:24:15.860Z,99355.15
2023-03-29T06:26:53.865Z,99362.53
2023-03-29T06:29:22.299Z,99367.67
2023-03-29T06:31:56.338Z,99361.38
2023-03-29T06:34:43.748Z,99369.08
2023-03-29T06:37:32.170Z,99377.44
2023-03-29T06:40:09.551Z,99383.60
2023-03-29T06:42:46.256Z,99386.67
2023-03-29T06:45:29.311Z,99393.48
2023-03-29T06:47:58.767Z,99393.65
2023-03-29T06:50:29.093Z,99401.48
2023-03-29T06:53:17.515Z,99405.58
2023-03-29T06:55:54.541Z,99416.82
2023-03-29T06:58:47.378Z,99423.30
2023-03-29T07:01:43.367Z,99425.20
2023-03-29T07:04:20.727Z,99424.23
2023-03-29T07:07:20.029Z,99431.09
2023-03-29T07:09:54.833Z,99434.17
2023-03-29T07:12:46.430Z,99444.09
2023-03-29T07:15:16.400Z,99443.73
2023-03-29T07:18:05.035Z,99434.52
2023-03-29T07:20:34.856Z,99434.69
2023-03-29T07:23:10.738Z,99439.12
2023-03-29T07:25:41.303Z,99430.39
2023-03-29T07:28:11.396Z,99433.94
2023-03-29T07:30:42.104Z,99434.25
2023-03-29T07:33:22.817Z,99434.95
2023-03-29T07:36:02.290Z,99430.55
2023-03-29T07:38:45.516Z,99423.23
2023-03-29T07:41:19.389Z,99420.66
2023-03-29T07:43:52.083Z,99425.63
2023-03-29T07:46:26.479Z,99432.61
2023-03-29T07:48:56.845Z,99434.31
2023-03-29T07:51:25.501Z,99430.40
2023-03-29T07:54:00.587Z,99431.45
2023-03-29T07:56:49.827Z,99429.23
2023-03-29T07:59:41.431Z,99435.94
2023-03-29T08:02:13.431Z,99434.29
2023-03-29T08:04:50.216Z,99436.86
2023-03-29T08:07:21.352Z,99433.59
2023-03-29T08:09:55.492Z,99439.05
2023-03-29T08:12:32.231Z,99442.27
2023-03-29T08:15:01.342Z,99451.14
2023-03-29T08:17:35.086Z,99438.35
2023-03-29T08:20:06.056Z,99440.42
2023-03-29T08:22:34.756Z,99437.89
2023-03-29T08:25:22.085Z,99440.50
2023-03-29T08:27:53.736Z,99440.02
2023-03-29T08:30:39.961Z,99446.20
2023-03-29T08:33:10.145Z,99447.91
2023-03-29T08:35:39.606Z,99445.34
2023-03-29T08:38:16.485Z,99452.16
2023-03-29T08:40:47.681Z,99463.11
2023-03-29T08:43:27.217Z,99466.38
2023-03-29T08:46:24.581Z,99468.29
2023-03-29T08:48:54.624Z,99477.69
2023-03-29T08:51:30.920Z,99487.12
2023-03-29T08:54:02.778Z,99491.20
2023-03-29T08:56:52.510Z,99488.09
2023-03-29T08:59:33.325Z,99489.46
2023-03-29T09:02:04.521Z,99494.78
2023-03-29T09:04:37.887Z,99498.58
2023-03-29T09:07:14.034Z,99482.49
2023-03-29T09:09:46.598Z,99491.90
2023-03-29T09:12:32.094Z,99490.02
2023-03-29T09:15:04.768Z,99504.54
2023-03-29T09:17:47.090Z,99508.27
2023-03-29T09:20:27.805Z,99516.13
2023-03-29T09:22:57.839Z,99522.98
2023-03-29T09:25:38.364Z,99529.30
2023-03-29T09:28:23.892Z,99535.45
2023-03-29T09:31:06.398Z,99546.39
2023-03-29T09:33:46.872Z,99540.77
2023-03-29T09:36:23.956Z,99553.40
2023-03-29T09:38:55.823Z,99561.11
2023-03-29T09:41:33.966Z,99562.48
2023-03-29T09:44:09.396Z,99575.65
2023-03-29T09:47:09.846Z,99585.08
2023-03-29T09:49:40.438Z,99586.15
2023-03-29T09:52:13.249Z,99583.44
2023-03-29T09:54:44.310Z,99587.55
2023-03-29T09:57:41.295Z,99591.98
2023-03-29T10:00:10.998Z,99595.92
2023-03-29T10:02:42.289Z,99593.02
2023-03-29T10:05:15.800Z,99599.39
2023-03-29T10:07:54.580Z,99601.81
2023-03-29T10:10:23.896Z,99604.88
2023-03-29T10:12:52.832Z,99613.58
2023-03-29T10:15:30.117Z,99617.13
2023-03-29T10:18:00.962Z,99620.90
2023-03-29T10:20:29.669Z,99626.73
2023-03-29T10:22:59.346Z,99625.54
2023-03-29T10:25:29.164Z,99633.74
2023-03-29T10:28:07.190Z,99635.48
2023-03-29T10:30:37.513Z,99638.58
2023-03-29T10:33:07.027Z,99633.98
2023-03-29T10:35:40.046Z,99641.36
2023-03-29T10:38:15.350Z,99640.66
2023-03-29T10:40:45.371Z,99646.10
2023-03-29T10:43:14.644Z,99652.05
2023-03-29T10:45:42.939Z,99659.38
2023-03-29T10:48:12.160Z,99657.61
2023-03-29T10:50:40.518Z,99658.63
2023-03-29T10:53:16.163Z,99663.94
2023-03-29T10:55:47.403Z,99663.62
2023-03-29T10:58:16.095Z,99667.75
2023-03-29T11:00:52.447Z,99668.12
2023-03-29T11:03:21.763Z,99667.12
2023-03-29T11:05:57.932Z,99668.69
2023-03-29T11:08:28.487Z,99675.88
2023-03-29T11:10:58.892Z,99682.54
2023-03-29T11:13:40.686Z,99680.80
2023-03-29T11:16:21.209Z,99682.35
2023-03-29T11:18:50.478Z,99682.70
2023-03-29T11:21:37.308Z,99682.88
2023-03-29T11:24:24.590Z,99683.73
2023-03-29T11:27:11.934Z,99685.94
2023-03-29T11:29:43.734Z,99693.13
2023-03-29T11:32:34.514Z,99693.14
2023-03-29T11:35:08.043Z,99697.88
2023-03-29T11:37:38.627Z,99696.99
2023-03-29T11:40:07.273Z,99705.63
2023-03-29T11:42:36.172Z,99711.05
2023-03-29T11:45:08.129Z,99708.64
2023-03-29T11:47:37.486Z,99713.09
2023-03-29T11:50:19.110Z,99713.11
2023-03-29T11:53:02.207Z,99712.26
2023-03-29T11:55:31.883Z,99714.67
2023-03-29T11:58:02.398Z,99711.58
2023-03-29T12:00:31.719Z,99717.90
2023-03-29T12:03:07.127Z,99718.55
2023-03-29T12:05:36.831Z,99717.45
2023-03-29T12:08:09.489Z,99724.42
2023-03-29T12:11:13.201Z,99721.66
2023-03-29T12:13:45.187Z,99726.61
2023-03-29T12:16:17.916Z,99726.10
2023-03-29T12:18:51.520Z,99724.91
2023-03-29T12:21:23.141Z,99729.98
2023-03-29T12:23:52.955Z,99733.77
2023-03-29T12:26:21.079Z,99736.27
2023-03-29T12:29:08.484Z,99738.30
2023-03-29T12:31:40.671Z,99739.56
2023-03-29T12:34:24.359Z,99727.79
2023-03-29T12:37:21.228Z,99741.36
2023-03-29T12:40:20.608Z,99739.61
2023-03-29T12:43:24.588Z,99734.14
2023-03-29T12:46:19.020Z,99744.70
2023-03-29T12:48:49.940Z,99737.67
2023-03-29T12:51:19.024Z,99733.26
2023-03-29T12:53:47.650Z,99736.36
2023-03-29T12:56:23.886Z,99735.73
2023-03-29T12:58:53.448Z,99739.73
2023-03-29T13:01:28.951Z,99743.88
2023-03-29T13:03:57.921Z,99748.17
2023-03-29T13:06:33.467Z,99754.23
2023-03-29T13:09:20.315Z,99752.11
2023-03-29T13:11:54.916Z,99762.00
2023-03-29T13:14:24.513Z,99763.77
2023-03-29T13:16:52.903Z,99760.69
2023-03-29T13:19:45.018Z,99762.23
2023-03-29T13:22:31.951Z,99774.62
2023-03-29T13:25:07.060Z,99776.38
2023-03-29T13:27:39.813Z,99777.77
2023-03-29T13:30:15.804Z,99780.20
2023-03-29T13:32:46.364Z,99777.54
2023-03-29T13:35:26.869Z,99780.71
2023-03-29T13:38:07.860Z,99791.61
2023-03-29T13:40:43.851Z,99800.85
2023-03-29T13:43:19.455Z,99797.44
2023-03-29T13:46:06.942Z,99795.75
2023-03-29T13:48:35.305Z,99796.44
2023-03-29T13:51:18.737Z,99798.81
2023-03-29T13:53:47.220Z,99797.03
2023-03-29T13:56:17.981Z,99805.68
2023-03-29T13:58:48.209Z,99811.92
2023-03-29T14:01:24.091Z,99815.25
2023-03-29T14:03:53.427Z,99826.09
2023-03-29T14:06:22.388Z,99828.42
2023-03-29T14:08:53.358Z,99827.74
2023-03-29T14:11:24.180Z,99827.40
2023-03-29T14:13:55.813Z,99821.08
2023-03-29T14:16:27.621Z,99826.04
2023-03-29T14:18:58.446Z,99835.38
2023-03-29T14:21:26.639Z,99842.70
2023-03-29T14:24:00.702Z,99844.89
2023-03-29T14:26:33.615Z,99845.55
2023-03-29T14:29:07.399Z,99852.88
2023-03-29T14:31:36.946Z,99862.92
2023-03-29T14:34:06.888Z,99853.23
2023-03-29T14:36:35.465Z,99854.23
2023-03-29T14:39:17.423Z,99857.48
2023-03-29T14:41:55.607Z,99862.95
2023-03-29T14:44:25.120Z,99866.17
2023-03-29T14:46:53.670Z,99863.25
2023-03-29T14:49:23.119Z,99869.35
2023-03-29T14:51:52.677Z,99870.35
2023-03-29T14:54:22.334Z,99881.08
2023-03-29T14:56:55.399Z,99878.98
2023-03-29T14:59:25.912Z,99877.21
2023-03-29T15:01:54.237Z,99883.48
2023-03-29T15:04:22.600Z,99882.75
2023-03-29T15:06:50.984Z,99888.16
2023-03-29T15:09:20.558Z,99889.47
2023-03-29T15:11:53.007Z,99895.76
2023-03-29T15:14:21.513Z,99894.23
2023-03-29T15:16:51.540Z,99900.70
2023-03-29T15:19:20.843Z,99906.67
2023-03-29T15:21:50.855Z,99910.41
2023-03-29T15:24:37.405Z,99915.50
2023-03-29T15:27:15.885Z,99920.40
2023-03-29T15:29:46.979Z,99928.20
2023-03-29T15:32:22.816Z,99927.16
2023-03-29T15:35:00.591Z,99928.99
2023-03-29T15:37:30.380Z,99929.14
2023-03-29T15:39:58.575Z,99925.52
2023-03-29T15:42:27.212Z,99926.69
2023-03-29T15:44:56.521Z,99927.52
2023-03-29T15:47:25.363Z,99932.08
2023-03-29T15:49:53.551Z,99940.92
2023-03-29T15:52:24.121Z,99941.08
2023-03-29T15:54:53.417Z,99941.95
2023-03-29T15:57:22.274Z,99943.88
2023-03-29T15:59:50.707Z,99949.90
2023-03-29T16:02:21.796Z,99953.73
2023-03-29T16:04:50.119Z,99951.11
2023-03-29T16:07:18.493Z,99963.11
2023-03-29T16:09:46.894Z,99955.66
2023-03-29T16:12:20.212Z,99957.59
2023-03-29T16:14:49.251Z,99966.63
2023-03-29T16:17:17.714Z,99967.27
2023-03-29T16:19:46.266Z,99967.59
2023-03-29T16:22:14.891Z,99971.44
2023-03-29T16:24:43.865Z,99976.84
2023-03-29T16:27:14.546Z,99977.32
2023-03-29T16:29:42.804Z,99973.54
2023-03-29T16:32:11.466Z,99972.33
2023-03-29T16:34:41.525Z,99978.27
2023-03-29T16:37:09.745Z,99980.45
2023-03-29T16:39:40.210Z,99985.38
2023-03-29T16:42:10.555Z,99990.34
2023-03-29T16:44:38.754Z,99988.29
2023-03-29T16:47:07.203Z,99986.95
2023-03-29T16:49:35.481Z,99982.69
2023-03-29T16:52:09.076Z,99985.27
2023-03-29T16:54:37.352Z,99987.98
2023-03-29T16:57:07.268Z,99993.23
2023-03-29T16:59:36.694Z,99995.96
2023-03-29T17:02:04.934Z,99997.67
2023-03-29T17:04:33.295Z,100002.14
2023-03-29T17:07:01.765Z,100006.27
2023-03-29T17:09:30.089Z,100012.28
2023-03-29T17:11:58.264Z,100017.96
2023-03-29T17:14:26.710Z,100020.27
2023-03-29T17:16:54.931Z,100018.95
2023-03-29T17:19:23.074Z,100020.86
2023-03-29T17:21:51.485Z,100021.56
2023-03-29T17:24:21.060Z,100023.89
2023-03-29T17:26:49.149Z,100027.77
2023-03-29T17:29:17.480Z,100031.48
2023-03-29T17:31:49.091Z,100036.20
2023-03-29T17:34:19.296Z,100038.56
2023-03-29T17:36:47.472Z,100033.25
2023-03-29T17:39:15.612Z,100036.60
2023-03-29T17:41:43.933Z,100035.21
2023-03-29T17:44:17.057Z,100031.09
2023-03-29T17:46:45.345Z,100023.73
2023-03-29T17:49:16.936Z,100020.30
2023-03-29T17:51:45.966Z,100022.63
2023-03-29T17:54:14.359Z,100016.77
2023-03-29T17:56:42.501Z,100015.20
2023-03-29T17:59:10.790Z,100017.38
2023-03-29T18:01:39.504Z,100017.86
2023-03-29T18:04:08.156Z,100020.58
2023-03-29T18:06:36.653Z,100024.00
2023-03-29T18:09:13.244Z,100030.72
2023-03-29T18:11:43.015Z,100030.11
2023-03-29T18:14:11.222Z,100031.02
2023-03-29T18:16:41.806Z,100033.42
2023-03-29T18:19:10.913Z,100036.88
2023-03-29T18:21:39.268Z,100034.52
2023-03-29T18:24:07.443Z,100034.03
2023-03-29T18:26:35.537Z,100034.05
2023-03-29T18:29:03.885Z,100033.34
2023-03-29T18:31:33.189Z,100028.51
2023-03-29T18:34:01.376Z,100029.28
2023-03-29T18:36:30.528Z,100025.97
2023-03-29T18:39:05.640Z,100019.45
2023-03-29T18:41:37.594Z,100018.35
2023-03-29T18:44:07.723Z,100017.25
2023-03-29T18:46:36.408Z,100014.63
2023-03-29T18:49:07.758Z,100015.44
2023-03-29T18:51:35.987Z,100021.35
2023-03-29T18:54:04.664Z,100027.66
2023-03-29T18:56:33.447Z,100027.70
2023-03-29T18:59:06.666Z,100025.35
2023-03-29T19:01:35.615Z,100029.64
2023-03-29T19:04:03.924Z,100037.66
2023-03-29T19:06:32.909Z,100049.15
2023-03-29T19:09:02.337Z,100051.61
2023-03-29T19:11:30.746Z,100045.86
2023-03-29T19:13:59.038Z,100044.39
2023-03-29T19:16:27.700Z,100039.42
2023-03-29T19:18:56.405Z,100037.99
2023-03-29T19:21:29.106Z,100036.85
2023-03-29T19:23:57.504Z,100038.46
2023-03-29T19:26:26.476Z,100040.44
2023-03-29T19:28:54.976Z,100049.05
2023-03-29T19:31:23.499Z,100048.47
2023-03-29T19:33:51.963Z,100040.90
2023-03-29T19:36:20.325Z,100043.41
2023-03-29T19:38:48.756Z,100040.48
2023-03-29T19:41:17.095Z,100044.39
2023-03-29T19:43:45.236Z,100045.45
2023-03-29T19:46:15.645Z,100036.63
2023-03-29T19:48:44.146Z,100029.50
2023-03-29T19:51:12.435Z,100029.16
2023-03-29T19:53:41.903Z,100030.14
2023-03-29T19:56:13.386Z,100038.30
2023-03-29T19:58:43.275Z,100041.71
2023-03-29T20:01:11.640Z,100038.00
2023-03-29T20:03:42.262Z,100038.88
2023-03-29T20:06:11.878Z,100045.05
2023-03-29T20:08:40.040Z,100053.74
2023-03-29T20:11:10.539Z,100056.99
2023-03-29T20:13:41.253Z,100057.20
2023-03-29T20:16:10.660Z,100059.23
2023-03-29T20:18:38.932Z,100063.29
2023-03-29T20:21:07.449Z,100064.63
2023-03-29T20:23:35.613Z,100064.45
2023-03-29T20:26:03.816Z,100065.96
2023-03-29T20:28:31.999Z,100061.68
2023-03-29T20:31:04.954Z,100064.73
2023-03-29T20:33:33.675Z,100064.29
2023-03-29T20:36:01.895Z,100069.29
2023-03-29T20:38:30.401Z,100067.14
2023-03-29T20:40:59.312Z,100068.41
2023-03-29T20:43:27.533Z,100070.34
2023-03-29T20:45:55.950Z,100077.57
2023-03-29T20:48:30.410Z,100082.76
2023-03-29T20:50:59.153Z,100083.84
2023-03-29T20:53:34.339Z,100079.95
2023-03-29T20:56:09.163Z,100077.10
2023-03-29T20:58:47.261Z,100081.55
2023-03-29T21:01:15.505Z,100077.79
2023-03-29T21:03:59.044Z,100073.48
2023-03-29T21:06:28.256Z,100065.05
2023-03-29T21:08:57.625Z,100063.10
2023-03-29T21:11:32.205Z,100063.38
2023-03-29T21:14:00.693Z,100062.80
2023-03-29T21:16:29.226Z,100066.83
2023-03-29T21:18:59.545Z,100064.55
2023-03-29T21:21:29.733Z,100066.88
2023-03-29T21:23:58.348Z,100068.30
2023-03-29T21:26:27.255Z,100069.08
2023-03-29T21:28:55.464Z,100069.05
2023-03-29T21:31:24.118Z,100056.59
2023-03-29T21:33:54.971Z,100053.21
2023-03-29T21:36:24.165Z,100051.67
2023-03-29T21:38:52.734Z,100046.77
2023-03-29T21:41:22.058Z,100051.91
2023-03-29T21:43:50.366Z,100059.30
2023-03-29T21:46:18.770Z,100056.98
2023-03-29T21:48:47.455Z,100054.10
2023-03-29T21:51:15.564Z,100053.42
2023-03-29T21:53:43.644Z,100056.15
2023-03-29T21:56:12.457Z,100053.92
2023-03-29T21:58:40.685Z,100055.82
2023-03-29T22:01:12.956Z,100063.70
2023-03-29T22:03:42.083Z,100068.54
2023-03-29T22:06:13.113Z,100071.29
2023-03-29T22:08:42.529Z,100071.63
2023-03-29T22:11:14.012Z,100072.30
2023-03-29T22:13:57.999Z,100072.42
2023-03-29T22:16:26.233Z,100075.09
2023-03-29T22:18:55.407Z,100079.94
2023-03-29T22:21:28.753Z,100075.92
2023-03-29T22:23:57.404Z,100079.63
2023-03-29T22:26:27.705Z,100080.77
2023-03-29T22:28:56.906Z,100088.23
2023-03-29T22:31:25.579Z,100085.95
2023-03-29T22:33:53.937Z,100081.85
2023-03-29T22:36:23.120Z,100075.37
2023-03-29T22:38:51.380Z,100076.23
2023-03-29T22:41:19.895Z,100082.25
2023-03-29T22:43:48.430Z,100085.20
2023-03-29T22:46:16.576Z,100089.84
2023-03-29T22:48:45.491Z,100091.46
2023-03-29T22:51:13.851Z,100092.55
2023-03-29T22:53:42.056Z,100089.71
2023-03-29T22:56:10.619Z,100089.27
2023-03-29T22:58:39.319Z,100089.47
2023-03-29T23:01:07.749Z,100094.43
2023-03-29T23:03:37.035Z,100099.21
2023-03-29T23:06:06.197Z,100099.36
2023-03-29T23:08:34.501Z,100098.67
2023-03-29T23:11:03.584Z,100099.73
2023-03-29T23:13:33.725Z,100100.13
2023-03-29T23:16:02.557Z,100100.52
2023-03-29T23:18:37.881Z,100106.84
2023-03-29T23:21:06.644Z,100103.23
2023-03-29T23:23:35.531Z,100106.27
2023-03-29T23:26:04.105Z,100103.63
2023-03-29T23:28:34.789Z,100102.00
2023-03-29T23:31:05.603Z,100098.82
2023-03-29T23:33:35.890Z,100099.61
2023-03-29T23:36:05.329Z,100101.44
2023-03-29T23:38:36.858Z,100104.63
2023-03-29T23:41:06.516Z,100107.29
2023-03-29T23:43:35.562Z,100104.48
2023-03-29T23:46:05.276Z,100104.12
2023-03-29T23:48:34.430Z,100104.46
2023-03-29T23:51:03.123Z,100104.84
2023-03-29T23:53:32.239Z,100101.33
2023-03-29T23:56:03.189Z,100098.67
2023-03-29T23:58:33.846Z,100097.87
